Time;durP1;ratioP1;P1;durP2;ratioP2;P2;SDS_P1;SDS_P2;PMS_P1;PMS_P2;Temp;Humidity;BMP_temperature;BMP_pressure;BME280_temperature;BME280_humidity;BME280_pressure;Samples;Min_cycle;Max_cycle;Signal;HPM_P1;HPM_P2
2024/01/26 00:00:38;;;;;;;10.60;6.60;;;8.00;99.90;;;;;;5041193;28;20045;-64
2024/01/26 00:03:12;;;;;;;11.63;6.95;;;8.00;99.90;;;;;;5043801;28;20041;-64
2024/01/26 00:05:44;;;;;;;7.53;5.35;;;8.00;99.90;;;;;;5042935;28;20120;-64
2024/01/26 00:08:15;;;;;;;8.77;6.35;;;8.00;99.90;;;;;;5027026;28;20045;-64
2024/01/26 00:10:47;;;;;;;9.20;5.85;;;8.00;99.90;;;;;;5045382;28;20032;-64
2024/01/26 00:13:19;;;;;;;7.88;5.07;;;8.00;99.90;;;;;;5047531;28;20038;-65
2024/01/26 00:15:47;;;;;;;8.05;5.00;;;7.90;99.90;;;;;;5047421;28;20049;-64
2024/01/26 00:18:18;;;;;;;8.80;5.28;;;7.90;99.90;;;;;;5054648;28;20072;-64
2024/01/26 00:20:50;;;;;;;8.90;5.45;;;7.90;99.90;;;;;;5053445;28;20039;-64
2024/01/26 00:23:22;;;;;;;8.68;5.90;;;7.90;99.90;;;;;;5053205;28;20052;-64
2024/01/26 00:25:54;;;;;;;8.15;5.38;;;7.80;99.90;;;;;;5036713;28;20494;-63
2024/01/26 00:28:25;;;;;;;8.40;5.50;;;7.80;99.90;;;;;;5053209;28;20041;-64
2024/01/26 00:30:57;;;;;;;7.78;5.28;;;7.80;99.90;;;;;;5049586;28;20037;-64
2024/01/26 00:33:29;;;;;;;7.63;4.93;;;7.80;99.90;;;;;;5021023;28;20056;-63
2024/01/26 00:36:01;;;;;;;9.88;6.28;;;7.80;99.90;;;;;;5035281;28;20521;-63
2024/01/26 00:38:32;;;;;;;8.85;5.80;;;7.80;99.90;;;;;;5036768;28;20572;-64
2024/01/26 00:41:04;;;;;;;9.43;5.97;;;7.80;99.90;;;;;;5030998;28;20041;-64
2024/01/26 00:43:37;;;;;;;11.10;6.95;;;7.80;99.90;;;;;;5035943;28;20073;-64
2024/01/26 00:46:08;;;;;;;12.65;7.13;;;7.80;99.90;;;;;;5046109;28;20053;-64
2024/01/26 00:48:40;;;;;;;11.20;6.70;;;7.70;99.90;;;;;;5044602;28;20047;-64
2024/01/26 00:51:12;;;;;;;11.18;7.10;;;7.70;99.90;;;;;;5034980;28;20510;-64
2024/01/26 00:53:43;;;;;;;14.35;7.97;;;7.70;99.90;;;;;;5036598;28;20037;-64
2024/01/26 00:56:15;;;;;;;13.43;7.95;;;7.80;99.90;;;;;;5038544;28;20057;-64
2024/01/26 00:58:47;;;;;;;12.30;7.47;;;7.80;99.90;;;;;;5033892;28;20076;-64
2024/01/26 01:01:14;;;;;;;12.95;8.10;;;7.80;99.90;;;;;;5035065;28;20041;-64
2024/01/26 01:03:46;;;;;;;13.85;8.07;;;7.90;99.90;;;;;;5031581;28;20467;-64
2024/01/26 01:06:18;;;;;;;13.40;8.10;;;7.80;99.90;;;;;;5051098;28;20048;-64
2024/01/26 01:08:50;;;;;;;13.25;8.30;;;7.80;99.90;;;;;;5022017;28;20042;-64
2024/01/26 01:11:21;;;;;;;15.13;9.35;;;7.80;99.90;;;;;;5043043;28;20306;-64
2024/01/26 01:13:54;;;;;;;15.02;9.10;;;7.80;99.90;;;;;;5019279;28;20041;-64
2024/01/26 01:16:28;;;;;;;16.08;8.88;;;7.80;99.90;;;;;;5042672;28;20049;-64
2024/01/26 01:18:55;;;;;;;14.63;8.93;;;7.80;99.90;;;;;;5034386;28;20124;-64
2024/01/26 01:21:26;;;;;;;14.52;8.68;;;7.80;99.90;;;;;;5044785;28;20109;-64
2024/01/26 01:23:58;;;;;;;15.95;9.15;;;7.80;99.90;;;;;;5030319;28;20063;-64
2024/01/26 01:26:30;;;;;;;14.88;9.18;;;7.90;99.90;;;;;;5036698;28;20512;-64
2024/01/26 01:29:02;;;;;;;13.45;7.97;;;7.90;99.90;;;;;;5033773;28;20636;-64
2024/01/26 01:31:34;;;;;;;11.50;7.60;;;7.90;99.90;;;;;;5033948;28;20033;-64
2024/01/26 01:34:05;;;;;;;13.15;8.07;;;7.90;99.90;;;;;;5039593;28;20132;-64
2024/01/26 01:36:37;;;;;;;13.70;8.60;;;7.90;99.90;;;;;;5032356;28;20425;-64
2024/01/26 01:39:04;;;;;;;16.42;8.68;;;7.90;99.90;;;;;;5023730;28;20428;-64
2024/01/26 01:41:36;;;;;;;12.63;7.60;;;7.90;99.90;;;;;;5044272;28;20049;-64
2024/01/26 01:44:07;;;;;;;13.07;8.48;;;7.90;99.90;;;;;;5045749;28;20083;-64
2024/01/26 01:46:39;;;;;;;14.50;7.60;;;7.90;99.90;;;;;;5030660;28;20037;-64
2024/01/26 01:49:06;;;;;;;12.77;7.80;;;7.80;99.90;;;;;;5037988;28;20132;-64
2024/01/26 01:51:42;;;;;;;9.65;6.25;;;7.80;99.90;;;;;;5021641;28;20045;-64
2024/01/26 01:54:15;;;;;;;10.35;7.50;;;7.80;99.90;;;;;;5036900;28;20056;-63
2024/01/26 01:56:49;;;;;;;10.75;6.68;;;7.80;99.90;;;;;;5051901;28;20105;-64
2024/01/26 01:59:21;;;;;;;11.70;7.35;;;7.80;99.90;;;;;;5035396;28;20041;-64
2024/01/26 02:01:49;;;;;;;10.45;6.22;;;7.80;99.90;;;;;;5047771;28;20084;-64
2024/01/26 02:04:21;;;;;;;11.52;7.30;;;7.80;99.90;;;;;;5007092;28;20052;-64
2024/01/26 02:06:57;;;;;;;11.02;7.35;;;7.90;99.90;;;;;;5042353;28;20533;-64
2024/01/26 02:09:30;;;;;;;11.73;6.90;;;7.90;99.90;;;;;;5032745;28;20118;-64
2024/01/26 02:12:01;;;;;;;10.30;6.63;;;7.90;99.90;;;;;;5039592;28;20052;-64
2024/01/26 02:14:33;;;;;;;12.73;7.75;;;7.90;99.90;;;;;;5048360;28;20409;-64
2024/01/26 02:17:01;;;;;;;11.43;7.22;;;7.80;99.90;;;;;;5039224;28;20516;-64
2024/01/26 02:19:33;;;;;;;13.52;8.65;;;7.80;99.90;;;;;;5032004;28;20475;-64
2024/01/26 02:22:05;;;;;;;15.73;9.02;;;7.90;99.90;;;;;;5033874;28;20100;-64
2024/01/26 02:24:37;;;;;;;13.85;7.38;;;7.90;99.90;;;;;;5032923;28;20071;-64
2024/01/26 02:27:04;;;;;;;13.05;8.40;;;7.90;99.90;;;;;;5026111;28;20037;-64
2024/01/26 02:29:36;;;;;;;13.38;8.15;;;7.90;99.90;;;;;;5046020;28;20048;-64
2024/01/26 02:32:09;;;;;;;13.60;8.02;;;7.90;99.90;;;;;;5043835;28;20115;-63
2024/01/26 02:34:41;;;;;;;11.55;7.00;;;7.90;99.90;;;;;;5031801;28;20576;-64
2024/01/26 02:37:13;;;;;;;13.18;7.63;;;7.90;99.90;;;;;;5027447;28;20063;-64
2024/01/26 02:39:45;;;;;;;12.43;7.00;;;7.90;99.90;;;;;;5038206;28;20072;-64
2024/01/26 02:42:17;;;;;;;11.38;7.50;;;7.90;99.90;;;;;;5048539;28;20036;-64
2024/01/26 02:44:49;;;;;;;11.32;6.70;;;7.90;99.90;;;;;;5034508;28;20060;-64
2024/01/26 02:47:21;;;;;;;12.60;6.57;;;7.90;99.90;;;;;;5033949;28;20522;-64
2024/01/26 02:49:53;;;;;;;11.65;5.93;;;7.90;99.90;;;;;;5031276;28;20498;-64
2024/01/26 02:52:20;;;;;;;10.05;6.40;;;8.00;99.90;;;;;;5048363;28;20489;-64
2024/01/26 02:54:52;;;;;;;9.80;5.90;;;8.00;99.90;;;;;;5046267;28;20095;-64
2024/01/26 02:57:24;;;;;;;9.02;5.85;;;8.00;99.90;;;;;;5032968;28;20045;-64
2024/01/26 02:59:56;;;;;;;8.40;5.35;;;8.00;99.90;;;;;;5032504;28;20072;-64
2024/01/26 03:02:23;;;;;;;8.15;5.20;;;8.00;99.90;;;;;;5030584;28;20151;-64
2024/01/26 03:04:55;;;;;;;7.00;4.80;;;8.00;99.90;;;;;;5044915;28;20429;-64
2024/01/26 03:07:26;;;;;;;7.63;5.25;;;8.10;99.90;;;;;;5047346;28;20502;-64
2024/01/26 03:09:53;;;;;;;8.38;4.88;;;8.10;99.90;;;;;;5048992;28;20048;-64
2024/01/26 03:12:25;;;;;;;7.95;5.50;;;8.10;99.90;;;;;;5033646;28;20036;-63
2024/01/26 03:14:57;;;;;;;7.35;4.90;;;8.00;99.90;;;;;;5050532;28;20049;-64
2024/01/26 03:17:28;;;;;;;6.60;3.80;;;8.00;99.90;;;;;;5049148;28;20123;-64
2024/01/26 03:20:00;;;;;;;6.65;4.50;;;8.00;99.90;;;;;;5032702;28;20049;-64
2024/01/26 03:22:27;;;;;;;7.60;4.03;;;8.00;99.90;;;;;;5038849;28;20955;-64
2024/01/26 03:24:59;;;;;;;6.22;4.30;;;8.00;99.90;;;;;;5041714;28;20064;-64
2024/01/26 03:27:30;;;;;;;5.57;3.67;;;7.90;99.90;;;;;;5032857;28;20045;-65
2024/01/26 03:30:03;;;;;;;8.13;5.50;;;7.90;99.90;;;;;;5044815;28;20033;-64
2024/01/26 03:32:35;;;;;;;6.07;4.18;;;7.90;99.90;;;;;;5046868;28;20107;-64
2024/01/26 03:35:08;;;;;;;4.95;3.50;;;7.90;99.90;;;;;;5034092;28;20048;-64
2024/01/26 03:37:40;;;;;;;6.50;3.10;;;7.90;99.90;;;;;;5033743;28;20049;-64
2024/01/26 03:40:12;;;;;;;4.72;3.25;;;7.90;99.90;;;;;;5051070;28;20076;-63
2024/01/26 03:42:38;;;;;;;6.40;3.42;;;7.90;99.90;;;;;;5031071;28;20045;-64
2024/01/26 03:45:12;;;;;;;4.95;3.17;;;7.90;99.90;;;;;;5031612;28;20049;-64
2024/01/26 03:47:44;;;;;;;;;;;7.90;99.90;;;;;;5032378;28;20034;-64
2024/01/26 03:50:16;;;;;;;4.70;3.05;;;7.80;99.90;;;;;;5031695;28;19925;-64
2024/01/26 03:52:43;;;;;;;4.45;3.38;;;7.80;99.90;;;;;;5023221;28;20045;-64
2024/01/26 03:55:15;;;;;;;4.43;2.92;;;7.80;99.90;;;;;;5037872;28;20633;-64
2024/01/26 03:57:47;;;;;;;5.80;3.72;;;7.70;99.90;;;;;;5042652;28;20048;-64
2024/01/26 04:00:19;;;;;;;5.70;3.50;;;7.80;99.90;;;;;;5042222;28;20413;-64
2024/01/26 04:02:51;;;;;;;4.95;3.50;;;7.80;99.90;;;;;;5048692;28;20149;-64
2024/01/26 04:05:22;;;;;;;7.22;3.20;;;7.80;99.90;;;;;;5032199;28;20132;-64
2024/01/26 04:07:54;;;;;;;5.32;3.13;;;7.70;99.90;;;;;;5030908;28;20049;-64
2024/01/26 04:10:21;;;;;;;5.20;3.80;;;7.70;99.90;;;;;;5031554;28;20044;-65
2024/01/26 04:12:53;;;;;;;6.78;4.80;;;7.70;99.90;;;;;;5031089;28;20048;-65
2024/01/26 04:15:25;;;;;;;6.32;4.65;;;7.60;99.90;;;;;;5021410;28;20107;-64
2024/01/26 04:17:57;;;;;;;7.63;4.72;;;7.60;99.90;;;;;;5022240;28;20106;-64
2024/01/26 04:20:29;;;;;;;6.93;4.50;;;7.60;99.90;;;;;;5040389;28;20219;-65
2024/01/26 04:23:01;;;;;;;6.70;4.80;;;7.60;99.90;;;;;;5039876;28;20038;-64
2024/01/26 04:25:33;;;;;;;7.78;4.22;;;7.60;99.90;;;;;;5030772;28;20045;-64
2024/01/26 04:28:05;;;;;;;7.53;5.43;;;7.60;99.90;;;;;;5033828;28;20045;-64
2024/01/26 04:30:39;;;;;;;7.18;4.78;;;7.60;99.90;;;;;;5034058;28;20052;-64
2024/01/26 04:33:06;;;;;;;9.30;5.30;;;7.60;99.90;;;;;;5038214;28;20069;-64
2024/01/26 04:35:38;;;;;;;9.10;5.90;;;7.60;99.90;;;;;;5014047;28;20049;-64
2024/01/26 04:38:09;;;;;;;8.70;5.97;;;7.50;99.90;;;;;;5035865;28;20046;-64
2024/01/26 04:40:41;;;;;;;10.60;6.32;;;7.60;99.90;;;;;;5031848;28;20103;-64
2024/01/26 04:43:14;;;;;;;10.90;6.15;;;7.50;99.90;;;;;;5040296;28;20045;-64
2024/01/26 04:45:46;;;;;;;10.23;6.50;;;7.50;99.90;;;;;;5041646;28;20578;-63
2024/01/26 04:48:13;;;;;;;11.18;7.43;;;7.50;99.90;;;;;;5044531;28;20043;-64
2024/01/26 04:50:45;;;;;;;12.93;7.60;;;7.50;99.90;;;;;;5045488;28;20041;-64
2024/01/26 04:53:18;;;;;;;12.20;8.10;;;7.50;99.90;;;;;;5035853;28;20507;-64
2024/01/26 04:55:50;;;;;;;11.10;7.43;;;7.50;99.90;;;;;;5030733;28;20057;-64
2024/01/26 04:58:22;;;;;;;12.35;7.78;;;7.50;99.90;;;;;;5032106;28;20367;-64
2024/01/26 05:00:54;;;;;;;12.05;7.70;;;7.50;99.90;;;;;;5014923;28;20073;-65
2024/01/26 05:03:26;;;;;;;13.20;8.07;;;7.50;99.90;;;;;;5038482;28;20157;-64
2024/01/26 05:05:58;;;;;;;10.40;7.22;;;7.50;99.90;;;;;;5029045;28;20524;-65
2024/01/26 05:08:30;;;;;;;12.88;7.32;;;7.50;99.90;;;;;;5034397;28;20540;-64
2024/01/26 05:11:02;;;;;;;10.38;6.78;;;7.50;99.90;;;;;;5046941;28;20037;-64
2024/01/26 05:13:34;;;;;;;10.88;7.22;;;7.50;99.90;;;;;;5048816;28;20060;-64
2024/01/26 05:16:06;;;;;;;10.13;6.57;;;7.40;99.90;;;;;;5041121;28;20051;-66
2024/01/26 05:18:39;;;;;;;9.33;6.93;;;7.40;99.90;;;;;;5035537;28;20532;-64
2024/01/26 05:21:10;;;;;;;9.18;6.57;;;7.30;99.90;;;;;;5052470;28;20072;-64
2024/01/26 05:23:42;;;;;;;10.07;6.90;;;7.40;99.90;;;;;;5039179;28;20132;-64
2024/01/26 05:26:14;;;;;;;9.57;6.57;;;7.30;99.90;;;;;;5015991;28;20077;-64
2024/01/26 05:28:46;;;;;;;8.35;5.32;;;7.30;99.90;;;;;;5045475;28;20101;-64
2024/01/26 05:31:17;;;;;;;9.25;5.40;;;7.30;99.90;;;;;;5041331;28;20045;-64
2024/01/26 05:33:49;;;;;;;7.07;5.10;;;7.30;99.90;;;;;;5034031;28;20406;-64
2024/01/26 05:36:22;;;;;;;8.00;5.45;;;7.30;99.90;;;;;;5037488;28;20037;-64
2024/01/26 05:38:49;;;;;;;7.07;4.78;;;7.30;99.90;;;;;;5053376;28;20064;-63
2024/01/26 05:41:20;;;;;;;6.70;4.32;;;7.30;99.90;;;;;;5050359;28;20040;-64
2024/01/26 05:43:48;;;;;;;6.13;4.15;;;7.30;99.90;;;;;;5050119;28;20045;-67
2024/01/26 05:46:20;;;;;;;6.50;4.07;;;7.30;99.90;;;;;;5052449;28;20047;-65
2024/01/26 05:48:52;;;;;;;5.75;4.30;;;7.30;99.90;;;;;;5039068;28;20037;-64
2024/01/26 05:51:24;;;;;;;4.38;3.17;;;7.30;99.90;;;;;;5044781;28;20577;-64
2024/01/26 05:53:56;;;;;;;3.63;3.15;;;7.20;99.90;;;;;;5035730;28;20080;-64
2024/01/26 05:56:28;;;;;;;4.60;3.03;;;7.30;99.90;;;;;;5040111;28;20053;-64
2024/01/26 05:59:00;;;;;;;5.95;3.15;;;7.30;99.90;;;;;;5039869;28;20045;-64
2024/01/26 06:01:31;;;;;;;5.53;3.00;;;7.30;99.90;;;;;;5027772;28;20492;-64
2024/01/26 06:04:05;;;;;;;3.78;2.70;;;7.30;99.90;;;;;;5043429;28;20506;-64
2024/01/26 06:06:32;;;;;;;5.15;3.03;;;7.30;99.90;;;;;;5044426;28;20045;-64
2024/01/26 06:09:04;;;;;;;4.25;2.97;;;7.30;99.90;;;;;;5039949;28;20041;-64
2024/01/26 06:11:36;;;;;;;3.53;2.72;;;7.30;99.90;;;;;;5037966;28;20042;-64
2024/01/26 06:14:03;;;;;;;3.83;2.42;;;7.40;99.90;;;;;;5050507;28;20047;-64
2024/01/26 06:16:29;;;;;;;4.20;2.90;;;7.40;99.90;;;;;;5050547;28;20041;-64
2024/01/26 06:19:01;;;;;;;4.20;2.47;;;7.50;99.90;;;;;;5016251;28;20072;-64
2024/01/26 06:21:33;;;;;;;4.03;2.72;;;7.50;99.90;;;;;;5046485;28;20058;-64
2024/01/26 06:24:05;;;;;;;3.70;2.30;;;7.50;99.90;;;;;;5040490;28;20045;-64
2024/01/26 06:26:37;;;;;;;3.03;2.55;;;7.50;99.90;;;;;;5045060;28;20048;-64
2024/01/26 06:29:09;;;;;;;4.82;2.90;;;7.50;99.90;;;;;;5041233;28;20041;-64
2024/01/26 06:31:41;;;;;;;4.07;2.58;;;7.50;99.90;;;;;;5031513;28;20041;-64
2024/01/26 06:34:13;;;;;;;2.83;2.15;;;7.50;99.90;;;;;;5032919;28;20034;-64
2024/01/26 06:36:45;;;;;;;2.70;1.98;;;7.60;99.90;;;;;;5003962;28;20616;-69
2024/01/26 06:39:17;;;;;;;4.18;1.95;;;7.60;99.90;;;;;;5035914;28;20053;-64
2024/01/26 06:41:49;;;;;;;2.67;1.80;;;7.60;99.90;;;;;;5046160;28;20129;-64
2024/01/26 06:44:21;;;;;;;3.00;1.85;;;7.60;99.90;;;;;;5035285;28;20485;-64
2024/01/26 06:46:55;;;;;;;3.63;1.90;;;7.60;99.90;;;;;;5039894;28;20132;-64
2024/01/26 06:49:27;;;;;;;3.75;1.83;;;7.60;99.90;;;;;;5027799;28;20107;-64
2024/01/26 06:51:58;;;;;;;3.20;1.52;;;7.60;99.90;;;;;;5048068;28;20503;-64
2024/01/26 06:54:30;;;;;;;2.22;1.40;;;7.60;99.90;;;;;;5040115;28;20049;-64
2024/01/26 06:57:02;;;;;;;6.18;3.88;;;7.60;99.90;;;;;;5041997;28;20532;-64
2024/01/26 06:59:37;;;;;;;8.75;7.80;;;7.60;99.90;;;;;;5044298;28;20052;-64
2024/01/26 07:02:09;;;;;;;3.85;2.78;;;7.60;99.90;;;;;;5046124;28;20504;-64
2024/01/26 07:04:41;;;;;;;3.10;1.70;;;7.60;99.90;;;;;;5048101;28;20049;-64
2024/01/26 07:07:13;;;;;;;2.88;1.77;;;7.60;99.90;;;;;;5034195;28;20041;-64
2024/01/26 07:09:45;;;;;;;2.15;1.23;;;7.60;99.90;;;;;;5041377;28;20045;-64
2024/01/26 07:12:16;;;;;;;2.13;1.27;;;7.70;99.90;;;;;;5033821;28;20494;-64
2024/01/26 07:14:43;;;;;;;2.00;1.25;;;7.70;99.90;;;;;;5041152;28;20029;-64
2024/01/26 07:17:10;;;;;;;2.72;1.58;;;7.70;99.90;;;;;;5037211;28;20037;-64
2024/01/26 07:19:42;;;;;;;2.05;1.30;;;7.70;99.90;;;;;;5044047;28;20037;-64
2024/01/26 07:22:09;;;;;;;2.88;1.52;;;7.70;99.90;;;;;;5041994;28;20048;-64
2024/01/26 07:24:41;;;;;;;1.60;1.23;;;7.70;99.90;;;;;;5021969;28;20053;-64
2024/01/26 07:27:13;;;;;;;1.90;1.30;;;7.70;99.90;;;;;;5031547;28;20033;-64
2024/01/26 07:29:45;;;;;;;2.25;1.23;;;7.70;99.90;;;;;;5034992;28;20037;-64
2024/01/26 07:32:17;;;;;;;3.15;1.83;;;7.80;99.90;;;;;;5033970;28;20038;-64
2024/01/26 07:34:49;;;;;;;4.70;1.55;;;7.80;99.90;;;;;;5033941;28;20409;-64
2024/01/26 07:37:21;;;;;;;2.20;1.27;;;7.80;99.90;;;;;;5031946;28;20072;-64
2024/01/26 07:39:52;;;;;;;2.42;1.70;;;7.80;99.90;;;;;;5033514;28;20044;-64
2024/01/26 07:42:24;;;;;;;2.22;1.30;;;7.80;99.90;;;;;;5026029;28;20056;-64
2024/01/26 07:44:56;;;;;;;2.78;1.40;;;7.80;99.90;;;;;;5044776;28;20049;-64
2024/01/26 07:47:28;;;;;;;2.13;1.50;;;7.90;99.90;;;;;;5041651;28;20041;-64
2024/01/26 07:50:00;;;;;;;4.38;2.08;;;7.90;99.90;;;;;;5040822;28;20051;-64
2024/01/26 07:52:27;;;;;;;3.47;1.35;;;7.90;99.90;;;;;;5020777;28;20061;-64
2024/01/26 07:54:59;;;;;;;1.60;1.27;;;7.90;99.90;;;;;;5044107;28;20056;-64
2024/01/26 07:57:26;;;;;;;3.08;1.38;;;7.90;99.90;;;;;;5033013;28;20555;-64
2024/01/26 07:59:54;;;;;;;2.25;1.45;;;7.90;99.90;;;;;;5048488;28;20044;-64
2024/01/26 08:02:26;;;;;;;1.43;1.10;;;8.00;99.90;;;;;;5050517;28;20124;-64
2024/01/26 08:04:58;;;;;;;1.85;1.40;;;7.90;99.90;;;;;;5032350;28;20045;-64
2024/01/26 08:07:30;;;;;;;3.47;1.30;;;8.00;99.90;;;;;;5047012;28;20037;-64
2024/01/26 08:10:02;;;;;;;2.55;0.82;;;8.00;99.90;;;;;;5044800;28;20077;-64
2024/01/26 08:12:34;;;;;;;1.92;1.00;;;8.00;99.90;;;;;;5020522;28;20053;-64
2024/01/26 08:15:07;;;;;;;4.00;1.42;;;8.10;99.90;;;;;;5041664;28;20065;-64
2024/01/26 08:17:34;;;;;;;1.50;0.93;;;8.10;99.90;;;;;;5042563;28;20045;-64
2024/01/26 08:20:07;;;;;;;1.45;0.90;;;8.20;99.90;;;;;;5041119;28;20145;-64
2024/01/26 08:22:34;;;;;;;2.33;1.20;;;8.20;99.90;;;;;;5029464;28;20073;-64
2024/01/26 08:25:07;;;;;;;1.67;0.90;;;8.20;99.90;;;;;;5037382;28;20045;-64
2024/01/26 08:27:34;;;;;;;1.38;0.93;;;8.20;99.90;;;;;;5042849;28;20037;-64
2024/01/26 08:30:06;;;;;;;2.38;0.90;;;8.30;99.90;;;;;;5026587;28;20095;-64
2024/01/26 08:32:39;;;;;;;1.60;0.80;;;8.30;99.90;;;;;;5044284;28;20034;-64
2024/01/26 08:35:11;;;;;;;2.50;0.95;;;8.40;99.90;;;;;;5032458;28;20458;-64
2024/01/26 08:37:43;;;;;;;1.05;0.70;;;8.40;99.90;;;;;;5030638;28;20049;-64
2024/01/26 08:40:10;;;;;;;2.38;1.10;;;8.50;99.90;;;;;;5046143;28;20050;-64
2024/01/26 08:42:44;;;;;;;1.63;0.90;;;8.50;99.90;;;;;;5048912;28;20041;-64
2024/01/26 08:45:16;;;;;;;2.63;1.00;;;8.60;99.90;;;;;;5032044;28;20064;-64
2024/01/26 08:47:48;;;;;;;2.40;0.93;;;8.60;99.90;;;;;;5019963;28;20049;-64
2024/01/26 08:50:19;;;;;;;2.38;1.77;;;8.70;99.90;;;;;;5037197;28;20068;-64
2024/01/26 08:52:51;;;;;;;2.20;0.90;;;8.60;99.90;;;;;;5032103;28;20040;-64
2024/01/26 08:55:23;;;;;;;1.98;0.90;;;8.70;99.90;;;;;;5025661;28;20065;-64
2024/01/26 08:57:55;;;;;;;2.88;1.25;;;8.70;99.90;;;;;;5038818;28;20049;-64
2024/01/26 09:00:26;;;;;;;1.90;0.75;;;8.70;99.90;;;;;;5033796;28;20057;-64
2024/01/26 09:02:58;;;;;;;2.40;0.80;;;8.70;99.90;;;;;;5042399;28;20075;-64
2024/01/26 09:05:30;;;;;;;1.55;0.88;;;8.80;99.90;;;;;;5034222;28;20128;-64
2024/01/26 09:07:57;;;;;;;1.63;0.88;;;8.80;99.90;;;;;;5044956;28;20043;-64
2024/01/26 09:10:29;;;;;;;1.70;0.80;;;8.90;99.90;;;;;;5043287;28;20041;-64
2024/01/26 09:13:00;;;;;;;3.08;1.00;;;8.90;99.90;;;;;;5041088;28;20041;-64
2024/01/26 09:15:32;;;;;;;4.72;1.52;;;9.00;99.90;;;;;;5049785;28;20543;-64
2024/01/26 09:18:04;;;;;;;1.38;1.00;;;9.00;99.90;;;;;;5028143;28;20052;-65
2024/01/26 09:20:36;;;;;;;4.25;1.55;;;9.10;99.90;;;;;;5036273;28;20495;-64
2024/01/26 09:23:08;;;;;;;1.50;0.90;;;9.20;99.90;;;;;;5033818;28;20064;-64
2024/01/26 09:25:40;;;;;;;2.67;1.17;;;9.30;99.90;;;;;;5036743;28;20045;-64
2024/01/26 09:28:12;;;;;;;1.95;0.75;;;9.30;99.90;;;;;;5029092;28;20041;-64
2024/01/26 09:30:44;;;;;;;2.45;0.95;;;9.30;99.90;;;;;;5028470;28;20040;-64
2024/01/26 09:33:15;;;;;;;1.45;1.00;;;9.30;99.90;;;;;;5044568;28;20044;-64
2024/01/26 09:35:48;;;;;;;1.30;1.10;;;9.30;99.90;;;;;;5027556;28;20620;-64
2024/01/26 09:38:20;;;;;;;1.77;1.27;;;9.30;99.90;;;;;;5032078;28;20603;-64
2024/01/26 09:40:52;;;;;;;2.90;0.80;;;9.30;99.90;;;;;;5046650;28;20069;-64
2024/01/26 09:43:19;;;;;;;1.80;1.00;;;9.30;99.90;;;;;;5033825;28;20046;-64
2024/01/26 09:45:52;;;;;;;3.10;0.95;;;9.30;99.90;;;;;;5020505;28;20543;-65
2024/01/26 09:48:25;;;;;;;1.60;1.02;;;9.40;99.90;;;;;;5009414;28;20041;-65
2024/01/26 09:50:58;;;;;;;1.92;0.90;;;9.40;99.90;;;;;;5017452;28;20067;-64
2024/01/26 09:53:26;;;;;;;2.35;1.05;;;9.40;99.90;;;;;;5038393;28;20037;-64
2024/01/26 09:55:59;;;;;;;3.03;1.15;;;9.50;99.90;;;;;;5042757;28;20474;-64
2024/01/26 09:58:31;;;;;;;1.90;1.20;;;9.50;99.90;;;;;;5042043;28;20049;-64
2024/01/26 10:01:04;;;;;;;1.90;1.10;;;9.60;99.90;;;;;;5043503;28;20040;-64
2024/01/26 10:03:36;;;;;;;4.05;1.27;;;9.60;99.90;;;;;;5047206;28;20044;-64
2024/01/26 10:06:10;;;;;;;1.45;0.93;;;9.60;99.90;;;;;;5039476;28;20072;-64
2024/01/26 10:08:42;;;;;;;1.92;1.15;;;9.60;99.90;;;;;;5041211;28;20037;-64
2024/01/26 10:11:14;;;;;;;1.13;0.90;;;9.70;99.90;;;;;;5031523;28;20044;-64
2024/01/26 10:13:46;;;;;;;3.10;0.93;;;9.70;99.90;;;;;;5036690;28;20040;-64
2024/01/26 10:16:18;;;;;;;1.30;1.00;;;9.80;99.90;;;;;;5041670;28;20046;-64
2024/01/26 10:18:50;;;;;;;1.20;0.90;;;9.80;99.90;;;;;;5040423;28;20048;-65
2024/01/26 10:21:22;;;;;;;2.55;1.10;;;9.80;99.90;;;;;;5049487;28;20033;-64
2024/01/26 10:23:54;;;;;;;3.17;1.20;;;9.80;99.90;;;;;;5037712;28;20118;-64
2024/01/26 10:26:28;;;;;;;1.73;1.00;;;9.80;99.90;;;;;;5045535;28;20040;-64
2024/01/26 10:28:59;;;;;;;2.60;1.27;;;9.90;99.90;;;;;;5043313;28;20073;-64
2024/01/26 10:31:33;;;;;;;4.82;1.45;;;9.90;99.90;;;;;;5040164;28;20052;-64
2024/01/26 10:34:01;;;;;;;2.67;1.10;;;9.90;99.90;;;;;;5040903;28;20136;-64
2024/01/26 10:36:33;;;;;;;2.13;1.08;;;10.00;99.90;;;;;;5049044;28;20051;-64
2024/01/26 10:39:07;;;;;;;1.55;1.02;;;10.00;99.90;;;;;;5033515;28;20041;-64
2024/01/26 10:41:42;;;;;;;2.25;0.90;;;10.10;99.90;;;;;;5038240;28;20041;-64
2024/01/26 10:44:16;;;;;;;2.47;1.05;;;10.10;99.90;;;;;;5035873;28;20041;-64
2024/01/26 10:46:50;;;;;;;3.63;2.03;;;10.10;99.90;;;;;;5034248;28;20508;-64
2024/01/26 10:49:23;;;;;;;1.25;0.95;;;10.20;99.90;;;;;;5034568;28;20124;-64
2024/01/26 10:51:56;;;;;;;2.63;0.80;;;10.20;99.90;;;;;;5046174;28;20056;-63
2024/01/26 10:54:28;;;;;;;2.67;1.10;;;10.20;99.90;;;;;;5045400;28;20316;-64
2024/01/26 10:57:00;;;;;;;2.00;1.00;;;10.20;99.90;;;;;;5035571;28;20041;-65
2024/01/26 10:59:33;;;;;;;2.30;0.90;;;10.20;99.90;;;;;;5045801;28;20041;-64
2024/01/26 11:02:08;;;;;;;1.35;0.98;;;10.20;99.90;;;;;;5041807;28;20069;-64
2024/01/26 11:04:43;;;;;;;2.97;1.17;;;10.20;99.90;;;;;;5043383;28;20076;-64
2024/01/26 11:07:10;;;;;;;3.35;1.20;;;10.30;99.90;;;;;;5032506;28;20041;-63
2024/01/26 11:09:46;;;;;;;3.47;1.10;;;10.20;99.90;;;;;;5040492;28;20448;-64
2024/01/26 11:12:22;;;;;;;2.05;0.98;;;10.20;99.90;;;;;;5032325;28;20528;-64
2024/01/26 11:15:10;;;;;;;2.15;0.98;;;10.20;99.90;;;;;;5010518;28;20077;-64
2024/01/26 11:17:53;;;;;;;1.50;0.90;;;10.30;99.90;;;;;;5043277;28;20107;-64
2024/01/26 11:20:30;;;;;;;1.38;0.88;;;10.30;99.90;;;;;;5045376;28;20082;-64
2024/01/26 11:23:11;;;;;;;1.83;1.50;;;10.30;99.90;;;;;;5043915;28;20087;-64
2024/01/26 11:25:41;;;;;;;2.03;1.20;;;10.30;99.90;;;;;;5037382;28;20541;-64
2024/01/26 11:28:17;;;;;;;1.52;0.77;;;10.30;99.90;;;;;;5047964;28;20087;-64
2024/01/26 11:30:59;;;;;;;1.52;1.02;;;10.30;99.90;;;;;;5033692;28;20041;-64
2024/01/26 11:33:37;;;;;;;1.92;1.20;;;10.20;99.90;;;;;;5035881;28;20604;-64
2024/01/26 11:36:12;;;;;;;1.80;0.98;;;10.30;99.90;;;;;;5049087;28;20039;-64
2024/01/26 11:38:45;;;;;;;2.08;1.20;;;10.20;99.90;;;;;;5032207;28;20053;-64
2024/01/26 11:41:17;;;;;;;2.88;1.13;;;10.20;99.90;;;;;;5011080;28;20048;-64
2024/01/26 11:43:52;;;;;;;1.25;0.90;;;10.20;99.90;;;;;;5022636;28;20048;-65
2024/01/26 11:46:20;;;;;;;1.55;0.68;;;10.20;99.90;;;;;;5023359;28;20061;-64
2024/01/26 11:48:51;;;;;;;1.35;1.13;;;10.20;99.90;;;;;;5030548;28;20069;-64
2024/01/26 11:51:23;;;;;;;1.25;1.00;;;10.20;99.90;;;;;;5046154;28;20042;-64
2024/01/26 11:53:55;;;;;;;1.98;1.33;;;10.20;99.90;;;;;;5032491;28;20528;-64
2024/01/26 11:56:27;;;;;;;2.55;0.90;;;10.20;99.90;;;;;;5039345;28;20061;-64
2024/01/26 11:58:59;;;;;;;2.10;1.10;;;10.30;99.90;;;;;;5038336;28;20041;-64
2024/01/26 12:01:31;;;;;;;2.15;1.00;;;10.30;99.90;;;;;;5032879;28;20045;-63
2024/01/26 12:04:03;;;;;;;1.45;0.85;;;10.30;99.90;;;;;;5038547;28;20052;-64
2024/01/26 12:06:35;;;;;;;1.65;1.13;;;10.30;99.90;;;;;;5037061;28;20449;-64
2024/01/26 12:09:07;;;;;;;2.97;0.95;;;10.30;99.90;;;;;;5049473;28;20579;-64
2024/01/26 12:11:40;;;;;;;3.65;1.00;;;10.30;99.90;;;;;;5035740;28;20116;-64
2024/01/26 12:14:11;;;;;;;1.25;1.00;;;10.30;99.90;;;;;;5033078;28;20552;-64
2024/01/26 12:16:43;;;;;;;2.33;1.38;;;10.30;99.90;;;;;;5054388;28;20054;-64
2024/01/26 12:19:15;;;;;;;1.90;0.93;;;10.30;99.90;;;;;;5031147;28;20049;-64
2024/01/26 12:21:42;;;;;;;1.33;0.98;;;10.30;99.90;;;;;;5045477;28;20473;-64
2024/01/26 12:24:10;;;;;;;2.10;1.27;;;10.30;99.90;;;;;;5034400;28;20045;-64
2024/01/26 12:26:42;;;;;;;1.50;1.05;;;10.30;99.90;;;;;;5016702;28;20057;-64
2024/01/26 12:29:14;;;;;;;2.20;1.10;;;10.20;99.90;;;;;;5025591;28;20049;-64
2024/01/26 12:31:46;;;;;;;3.42;1.10;;;10.20;99.90;;;;;;5032080;28;20033;-64
2024/01/26 12:34:18;;;;;;;0.98;0.88;;;10.20;99.90;;;;;;5043994;28;20049;-64
2024/01/26 12:36:56;;;;;;;2.40;1.00;;;10.20;99.90;;;;;;5031445;28;20047;-64
2024/01/26 12:39:28;;;;;;;1.83;1.50;;;10.20;99.90;;;;;;5046458;28;20049;-64
2024/01/26 12:41:55;;;;;;;2.67;1.27;;;10.20;99.90;;;;;;5047946;28;20120;-64
2024/01/26 12:44:31;;;;;;;1.48;0.95;;;10.20;99.90;;;;;;5046694;28;20047;-64
2024/01/26 12:47:03;;;;;;;1.35;1.00;;;10.20;99.90;;;;;;5041253;28;20061;-63
2024/01/26 12:49:35;;;;;;;2.65;1.10;;;10.10;99.90;;;;;;5041852;28;20117;-64
2024/01/26 12:52:08;;;;;;;3.33;1.25;;;10.10;99.90;;;;;;5023658;28;20045;-64
2024/01/26 12:54:40;;;;;;;1.65;1.23;;;10.00;99.90;;;;;;5040543;28;20025;-64
2024/01/26 12:57:12;;;;;;;1.83;1.25;;;9.90;99.90;;;;;;5043005;28;20043;-64
2024/01/26 12:59:43;;;;;;;1.83;1.45;;;9.70;99.90;;;;;;5032466;28;20057;-64
2024/01/26 13:02:15;;;;;;;2.80;1.50;;;9.60;99.90;;;;;;5048667;28;20048;-64
2024/01/26 13:04:52;;;;;;;2.85;1.65;;;9.50;99.90;;;;;;5049900;28;20458;-64
2024/01/26 13:07:21;;;;;;;2.05;1.50;;;9.40;99.90;;;;;;5050788;28;20029;-64
2024/01/26 13:09:52;;;;;;;4.10;1.83;;;9.40;99.90;;;;;;5029043;28;20037;-64
2024/01/26 13:12:24;;;;;;;5.70;1.85;;;9.30;99.90;;;;;;5034089;28;20536;-64
2024/01/26 13:14:56;;;;;;;3.25;1.73;;;9.20;99.90;;;;;;5039646;28;20510;-64